sensor_id;sensor_type;location;lat;lon;timestamp;P1;durP1;ratioP1;P2;durP2;ratioP2
15327;SDS011;7764;51.430;6.840;2022-12-18T00:02:17;13.17;;;7.77;;
15327;SDS011;7764;51.430;6.840;2022-12-18T00:04:44;17.90;;;8.07;;
15327;SDS011;7764;51.430;6.840;2022-12-18T00:07:11;15.10;;;7.50;;
15327;SDS011;7764;51.430;6.840;2022-12-18T00:09:38;14.43;;;7.40;;
15327;SDS011;7764;51.430;6.840;2022-12-18T00:12:05;15.07;;;7.70;;
15327;SDS011;7764;51.430;6.840;2022-12-18T00:14:32;13.53;;;7.30;;
15327;SDS011;7764;51.430;6.840;2022-12-18T00:16:59;15.33;;;8.20;;
15327;SDS011;7764;51.430;6.840;2022-12-18T00:19:28;15.60;;;8.33;;
15327;SDS011;7764;51.430;6.840;2022-12-18T00:21:54;15.60;;;8.23;;
15327;SDS011;7764;51.430;6.840;2022-12-18T00:24:23;14.87;;;8.70;;
15327;SDS011;7764;51.430;6.840;2022-12-18T00:26:50;15.57;;;7.83;;
15327;SDS011;7764;51.430;6.840;2022-12-18T00:29:16;14.33;;;7.93;;
15327;SDS011;7764;51.430;6.840;2022-12-18T00:31:43;13.93;;;7.70;;
15327;SDS011;7764;51.430;6.840;2022-12-18T00:34:10;15.77;;;8.00;;
15327;SDS011;7764;51.430;6.840;2022-12-18T00:36:40;15.20;;;7.70;;
15327;SDS011;7764;51.430;6.840;2022-12-18T00:39:07;16.17;;;8.80;;
15327;SDS011;7764;51.430;6.840;2022-12-18T00:41:35;14.87;;;7.80;;
15327;SDS011;7764;51.430;6.840;2022-12-18T00:44:20;14.20;;;7.43;;
15327;SDS011;7764;51.430;6.840;2022-12-18T00:46:47;13.57;;;7.20;;
15327;SDS011;7764;51.430;6.840;2022-12-18T00:49:15;13.63;;;7.43;;
15327;SDS011;7764;51.430;6.840;2022-12-18T00:51:44;15.37;;;8.27;;
15327;SDS011;7764;51.430;6.840;2022-12-18T00:54:11;16.33;;;8.50;;
15327;SDS011;7764;51.430;6.840;2022-12-18T00:56:38;16.27;;;7.77;;
15327;SDS011;7764;51.430;6.840;2022-12-18T00:59:05;13.93;;;7.73;;
15327;SDS011;7764;51.430;6.840;2022-12-18T01:01:32;14.50;;;8.13;;
15327;SDS011;7764;51.430;6.840;2022-12-18T01:04:00;14.97;;;8.03;;
15327;SDS011;7764;51.430;6.840;2022-12-18T01:06:30;15.13;;;7.80;;
15327;SDS011;7764;51.430;6.840;2022-12-18T01:08:58;17.23;;;8.63;;
15327;SDS011;7764;51.430;6.840;2022-12-18T01:11:25;16.33;;;7.63;;
15327;SDS011;7764;51.430;6.840;2022-12-18T01:13:52;16.63;;;8.00;;
15327;SDS011;7764;51.430;6.840;2022-12-18T01:16:20;16.77;;;8.50;;
15327;SDS011;7764;51.430;6.840;2022-12-18T01:18:47;14.27;;;7.87;;
15327;SDS011;7764;51.430;6.840;2022-12-18T01:21:14;20.60;;;8.10;;
15327;SDS011;7764;51.430;6.840;2022-12-18T01:23:45;13.47;;;7.47;;
15327;SDS011;7764;51.430;6.840;2022-12-18T01:26:14;14.37;;;7.93;;
15327;SDS011;7764;51.430;6.840;2022-12-18T01:28:42;14.67;;;7.40;;
15327;SDS011;7764;51.430;6.840;2022-12-18T01:31:11;16.47;;;7.57;;
15327;SDS011;7764;51.430;6.840;2022-12-18T01:33:39;14.30;;;6.87;;
15327;SDS011;7764;51.430;6.840;2022-12-18T01:36:06;13.90;;;7.17;;
15327;SDS011;7764;51.430;6.840;2022-12-18T01:38:33;13.70;;;7.10;;
15327;SDS011;7764;51.430;6.840;2022-12-18T01:41:00;14.07;;;7.57;;
15327;SDS011;7764;51.430;6.840;2022-12-18T01:43:48;13.43;;;6.87;;
15327;SDS011;7764;51.430;6.840;2022-12-18T01:46:17;15.50;;;7.03;;
15327;SDS011;7764;51.430;6.840;2022-12-18T01:48:46;13.20;;;7.07;;
15327;SDS011;7764;51.430;6.840;2022-12-18T01:51:16;13.37;;;7.30;;
15327;SDS011;7764;51.430;6.840;2022-12-18T01:53:43;13.80;;;7.17;;
15327;SDS011;7764;51.430;6.840;2022-12-18T01:56:14;13.50;;;7.27;;
15327;SDS011;7764;51.430;6.840;2022-12-18T01:58:45;15.07;;;7.60;;
15327;SDS011;7764;51.430;6.840;2022-12-18T02:01:19;15.20;;;7.97;;
15327;SDS011;7764;51.430;6.840;2022-12-18T02:03:47;13.57;;;7.67;;
15327;SDS011;7764;51.430;6.840;2022-12-18T02:06:15;13.93;;;7.70;;
15327;SDS011;7764;51.430;6.840;2022-12-18T02:08:48;17.30;;;7.97;;
15327;SDS011;7764;51.430;6.840;2022-12-18T02:11:23;17.27;;;8.53;;
15327;SDS011;7764;51.430;6.840;2022-12-18T02:14:01;16.23;;;8.07;;
15327;SDS011;7764;51.430;6.840;2022-12-18T02:16:37;16.93;;;8.90;;
15327;SDS011;7764;51.430;6.840;2022-12-18T02:19:16;15.60;;;8.13;;
15327;SDS011;7764;51.430;6.840;2022-12-18T02:21:55;15.93;;;8.23;;
15327;SDS011;7764;51.430;6.840;2022-12-18T02:24:29;15.53;;;7.53;;
15327;SDS011;7764;51.430;6.840;2022-12-18T02:27:03;14.87;;;7.63;;
15327;SDS011;7764;51.430;6.840;2022-12-18T02:29:34;13.70;;;7.73;;
15327;SDS011;7764;51.430;6.840;2022-12-18T02:32:06;15.80;;;8.13;;
15327;SDS011;7764;51.430;6.840;2022-12-18T02:34:38;14.37;;;8.20;;
15327;SDS011;7764;51.430;6.840;2022-12-18T02:37:07;15.80;;;7.47;;
15327;SDS011;7764;51.430;6.840;2022-12-18T02:39:39;13.60;;;7.30;;
15327;SDS011;7764;51.430;6.840;2022-12-18T02:42:10;13.37;;;7.37;;
15327;SDS011;7764;51.430;6.840;2022-12-18T02:44:41;17.30;;;8.47;;
15327;SDS011;7764;51.430;6.840;2022-12-18T02:47:09;14.23;;;8.30;;
15327;SDS011;7764;51.430;6.840;2022-12-18T02:49:40;17.50;;;8.77;;
15327;SDS011;7764;51.430;6.840;2022-12-18T02:52:17;16.27;;;8.73;;
15327;SDS011;7764;51.430;6.840;2022-12-18T02:54:52;17.93;;;8.37;;
15327;SDS011;7764;51.430;6.840;2022-12-18T02:57:30;17.43;;;9.07;;
15327;SDS011;7764;51.430;6.840;2022-12-18T03:00:02;18.10;;;9.20;;
15327;SDS011;7764;51.430;6.840;2022-12-18T03:02:34;18.57;;;8.37;;
15327;SDS011;7764;51.430;6.840;2022-12-18T03:05:06;17.30;;;8.93;;
15327;SDS011;7764;51.430;6.840;2022-12-18T03:07:37;15.03;;;7.63;;
15327;SDS011;7764;51.430;6.840;2022-12-18T03:10:07;14.53;;;7.77;;
15327;SDS011;7764;51.430;6.840;2022-12-18T03:12:40;15.40;;;8.30;;
15327;SDS011;7764;51.430;6.840;2022-12-18T03:15:11;16.00;;;7.77;;
15327;SDS011;7764;51.430;6.840;2022-12-18T03:17:44;15.37;;;8.23;;
15327;SDS011;7764;51.430;6.840;2022-12-18T03:20:17;13.90;;;7.70;;
15327;SDS011;7764;51.430;6.840;2022-12-18T03:22:47;14.17;;;7.87;;
15327;SDS011;7764;51.430;6.840;2022-12-18T03:25:17;14.47;;;8.07;;
15327;SDS011;7764;51.430;6.840;2022-12-18T03:27:48;12.47;;;6.80;;
15327;SDS011;7764;51.430;6.840;2022-12-18T03:30:18;13.70;;;7.13;;
15327;SDS011;7764;51.430;6.840;2022-12-18T03:32:46;11.80;;;6.50;;
15327;SDS011;7764;51.430;6.840;2022-12-18T03:35:16;14.83;;;6.70;;
15327;SDS011;7764;51.430;6.840;2022-12-18T03:37:49;11.83;;;6.73;;
15327;SDS011;7764;51.430;6.840;2022-12-18T03:40:19;13.93;;;7.43;;
15327;SDS011;7764;51.430;6.840;2022-12-18T03:42:55;13.37;;;7.50;;
15327;SDS011;7764;51.430;6.840;2022-12-18T03:45:27;12.37;;;6.63;;
15327;SDS011;7764;51.430;6.840;2022-12-18T03:47:59;13.10;;;6.80;;
15327;SDS011;7764;51.430;6.840;2022-12-18T03:50:34;12.70;;;6.80;;
15327;SDS011;7764;51.430;6.840;2022-12-18T03:53:10;9.37;;;4.37;;
15327;SDS011;7764;51.430;6.840;2022-12-18T03:55:47;8.97;;;5.27;;
15327;SDS011;7764;51.430;6.840;2022-12-18T03:58:17;12.33;;;6.70;;
15327;SDS011;7764;51.430;6.840;2022-12-18T04:00:47;14.10;;;7.07;;
15327;SDS011;7764;51.430;6.840;2022-12-18T04:03:16;11.77;;;6.27;;
15327;SDS011;7764;51.430;6.840;2022-12-18T04:05:45;13.03;;;6.03;;
15327;SDS011;7764;51.430;6.840;2022-12-18T04:08:14;11.93;;;6.83;;
15327;SDS011;7764;51.430;6.840;2022-12-18T04:10:41;11.17;;;6.10;;
15327;SDS011;7764;51.430;6.840;2022-12-18T04:13:08;12.37;;;6.20;;
15327;SDS011;7764;51.430;6.840;2022-12-18T04:15:37;13.90;;;6.67;;
15327;SDS011;7764;51.430;6.840;2022-12-18T04:18:04;9.73;;;5.53;;
15327;SDS011;7764;51.430;6.840;2022-12-18T04:20:31;13.07;;;6.70;;
15327;SDS011;7764;51.430;6.840;2022-12-18T04:22:58;12.83;;;6.53;;
15327;SDS011;7764;51.430;6.840;2022-12-18T04:25:25;12.60;;;6.23;;
15327;SDS011;7764;51.430;6.840;2022-12-18T04:27:52;12.37;;;6.50;;
15327;SDS011;7764;51.430;6.840;2022-12-18T04:30:19;12.17;;;6.40;;
15327;SDS011;7764;51.430;6.840;2022-12-18T04:32:47;12.40;;;6.70;;
15327;SDS011;7764;51.430;6.840;2022-12-18T04:35:14;12.47;;;6.20;;
15327;SDS011;7764;51.430;6.840;2022-12-18T04:37:41;11.77;;;6.53;;
15327;SDS011;7764;51.430;6.840;2022-12-18T04:40:08;12.83;;;6.47;;
15327;SDS011;7764;51.430;6.840;2022-12-18T04:42:36;10.37;;;6.43;;
15327;SDS011;7764;51.430;6.840;2022-12-18T04:45:03;11.90;;;6.33;;
15327;SDS011;7764;51.430;6.840;2022-12-18T04:47:30;10.70;;;6.47;;
15327;SDS011;7764;51.430;6.840;2022-12-18T04:49:58;10.70;;;6.07;;
15327;SDS011;7764;51.430;6.840;2022-12-18T04:52:25;12.80;;;6.57;;
15327;SDS011;7764;51.430;6.840;2022-12-18T04:54:52;13.17;;;6.93;;
15327;SDS011;7764;51.430;6.840;2022-12-18T04:57:19;15.20;;;6.93;;
15327;SDS011;7764;51.430;6.840;2022-12-18T04:59:46;11.83;;;6.83;;
15327;SDS011;7764;51.430;6.840;2022-12-18T05:02:13;12.57;;;6.63;;
15327;SDS011;7764;51.430;6.840;2022-12-18T05:04:39;11.73;;;6.27;;
15327;SDS011;7764;51.430;6.840;2022-12-18T05:07:08;10.37;;;5.90;;
15327;SDS011;7764;51.430;6.840;2022-12-18T05:09:34;11.03;;;5.77;;
15327;SDS011;7764;51.430;6.840;2022-12-18T05:12:01;10.63;;;5.80;;
15327;SDS011;7764;51.430;6.840;2022-12-18T05:14:28;10.40;;;5.73;;
15327;SDS011;7764;51.430;6.840;2022-12-18T05:16:55;10.17;;;5.60;;
15327;SDS011;7764;51.430;6.840;2022-12-18T05:19:22;10.07;;;5.33;;
15327;SDS011;7764;51.430;6.840;2022-12-18T05:21:49;10.77;;;5.40;;
15327;SDS011;7764;51.430;6.840;2022-12-18T05:24:17;7.93;;;5.07;;
15327;SDS011;7764;51.430;6.840;2022-12-18T05:26:45;10.10;;;5.10;;
15327;SDS011;7764;51.430;6.840;2022-12-18T05:29:11;9.47;;;5.33;;
15327;SDS011;7764;51.430;6.840;2022-12-18T05:31:38;9.87;;;5.60;;
15327;SDS011;7764;51.430;6.840;2022-12-18T05:34:05;10.77;;;5.80;;
15327;SDS011;7764;51.430;6.840;2022-12-18T05:36:32;12.00;;;5.73;;
15327;SDS011;7764;51.430;6.840;2022-12-18T05:38:59;9.80;;;5.60;;
15327;SDS011;7764;51.430;6.840;2022-12-18T05:41:28;10.53;;;5.87;;
15327;SDS011;7764;51.430;6.840;2022-12-18T05:43:54;10.33;;;5.43;;
15327;SDS011;7764;51.430;6.840;2022-12-18T05:46:21;10.87;;;5.70;;
15327;SDS011;7764;51.430;6.840;2022-12-18T05:48:49;10.40;;;5.80;;
15327;SDS011;7764;51.430;6.840;2022-12-18T05:51:17;11.93;;;6.17;;
15327;SDS011;7764;51.430;6.840;2022-12-18T05:53:45;12.67;;;6.10;;
15327;SDS011;7764;51.430;6.840;2022-12-18T05:56:13;11.13;;;6.03;;
15327;SDS011;7764;51.430;6.840;2022-12-18T05:58:43;10.20;;;5.90;;
15327;SDS011;7764;51.430;6.840;2022-12-18T06:01:12;10.40;;;5.63;;
15327;SDS011;7764;51.430;6.840;2022-12-18T06:03:40;9.60;;;5.63;;
15327;SDS011;7764;51.430;6.840;2022-12-18T06:06:14;11.60;;;6.33;;
15327;SDS011;7764;51.430;6.840;2022-12-18T06:08:41;10.40;;;5.70;;
15327;SDS011;7764;51.430;6.840;2022-12-18T06:11:08;11.90;;;6.07;;
15327;SDS011;7764;51.430;6.840;2022-12-18T06:13:35;17.70;;;9.83;;
15327;SDS011;7764;51.430;6.840;2022-12-18T06:16:04;19.67;;;9.57;;
15327;SDS011;7764;51.430;6.840;2022-12-18T06:18:31;13.70;;;7.07;;
15327;SDS011;7764;51.430;6.840;2022-12-18T06:20:59;12.13;;;6.50;;
15327;SDS011;7764;51.430;6.840;2022-12-18T06:23:26;12.20;;;6.70;;
15327;SDS011;7764;51.430;6.840;2022-12-18T06:25:53;13.77;;;7.50;;
15327;SDS011;7764;51.430;6.840;2022-12-18T06:28:20;15.17;;;7.73;;
15327;SDS011;7764;51.430;6.840;2022-12-18T06:30:47;17.13;;;8.00;;
15327;SDS011;7764;51.430;6.840;2022-12-18T06:33:16;14.43;;;7.57;;
15327;SDS011;7764;51.430;6.840;2022-12-18T06:35:43;16.57;;;7.73;;
15327;SDS011;7764;51.430;6.840;2022-12-18T06:38:10;11.87;;;7.27;;
15327;SDS011;7764;51.430;6.840;2022-12-18T06:40:37;15.87;;;8.33;;
15327;SDS011;7764;51.430;6.840;2022-12-18T06:43:05;16.70;;;8.40;;
15327;SDS011;7764;51.430;6.840;2022-12-18T06:45:32;17.47;;;9.70;;
15327;SDS011;7764;51.430;6.840;2022-12-18T06:47:58;22.67;;;12.50;;
15327;SDS011;7764;51.430;6.840;2022-12-18T06:50:27;29.83;;;14.73;;
15327;SDS011;7764;51.430;6.840;2022-12-18T06:52:54;30.50;;;15.60;;
15327;SDS011;7764;51.430;6.840;2022-12-18T06:55:21;30.40;;;16.13;;
15327;SDS011;7764;51.430;6.840;2022-12-18T06:57:48;30.73;;;16.53;;
15327;SDS011;7764;51.430;6.840;2022-12-18T07:00:15;28.70;;;15.53;;
15327;SDS011;7764;51.430;6.840;2022-12-18T07:02:42;39.30;;;18.53;;
15327;SDS011;7764;51.430;6.840;2022-12-18T07:05:09;33.10;;;17.00;;
15327;SDS011;7764;51.430;6.840;2022-12-18T07:07:37;31.60;;;17.33;;
15327;SDS011;7764;51.430;6.840;2022-12-18T07:10:04;36.27;;;18.40;;
15327;SDS011;7764;51.430;6.840;2022-12-18T07:12:31;37.87;;;18.13;;
15327;SDS011;7764;51.430;6.840;2022-12-18T07:14:58;34.93;;;17.83;;
15327;SDS011;7764;51.430;6.840;2022-12-18T07:17:25;33.27;;;16.73;;
15327;SDS011;7764;51.430;6.840;2022-12-18T07:19:52;35.57;;;18.23;;
15327;SDS011;7764;51.430;6.840;2022-12-18T07:22:19;32.60;;;18.03;;
15327;SDS011;7764;51.430;6.840;2022-12-18T07:24:47;31.20;;;17.13;;
15327;SDS011;7764;51.430;6.840;2022-12-18T07:27:14;31.03;;;16.10;;
15327;SDS011;7764;51.430;6.840;2022-12-18T07:29:41;34.40;;;17.67;;
15327;SDS011;7764;51.430;6.840;2022-12-18T07:32:07;38.60;;;20.00;;
15327;SDS011;7764;51.430;6.840;2022-12-18T07:34:34;35.43;;;17.60;;
15327;SDS011;7764;51.430;6.840;2022-12-18T07:37:01;41.07;;;19.87;;
15327;SDS011;7764;51.430;6.840;2022-12-18T07:39:28;37.40;;;19.70;;
15327;SDS011;7764;51.430;6.840;2022-12-18T07:41:56;37.43;;;18.03;;
15327;SDS011;7764;51.430;6.840;2022-12-18T07:44:40;33.73;;;18.27;;
15327;SDS011;7764;51.430;6.840;2022-12-18T07:47:07;36.03;;;18.47;;
15327;SDS011;7764;51.430;6.840;2022-12-18T07:49:34;36.23;;;19.00;;
15327;SDS011;7764;51.430;6.840;2022-12-18T07:52:01;39.03;;;19.43;;
15327;SDS011;7764;51.430;6.840;2022-12-18T07:54:28;39.20;;;19.27;;
15327;SDS011;7764;51.430;6.840;2022-12-18T07:56:59;34.47;;;18.23;;
15327;SDS011;7764;51.430;6.840;2022-12-18T07:59:29;36.67;;;19.30;;
15327;SDS011;7764;51.430;6.840;2022-12-18T08:01:55;40.87;;;18.83;;
15327;SDS011;7764;51.430;6.840;2022-12-18T08:04:23;39.00;;;19.70;;
15327;SDS011;7764;51.430;6.840;2022-12-18T08:06:50;32.50;;;16.50;;
15327;SDS011;7764;51.430;6.840;2022-12-18T08:09:17;29.73;;;16.27;;
15327;SDS011;7764;51.430;6.840;2022-12-18T08:11:44;13.93;;;7.40;;
15327;SDS011;7764;51.430;6.840;2022-12-18T08:14:13;9.37;;;5.17;;
15327;SDS011;7764;51.430;6.840;2022-12-18T08:16:39;10.70;;;4.90;;
15327;SDS011;7764;51.430;6.840;2022-12-18T08:19:06;9.30;;;5.00;;
15327;SDS011;7764;51.430;6.840;2022-12-18T08:21:36;8.80;;;3.90;;
15327;SDS011;7764;51.430;6.840;2022-12-18T08:24:03;35.37;;;13.60;;
15327;SDS011;7764;51.430;6.840;2022-12-18T08:26:31;9.20;;;4.93;;
15327;SDS011;7764;51.430;6.840;2022-12-18T08:28:58;31.67;;;16.40;;
15327;SDS011;7764;51.430;6.840;2022-12-18T08:31:28;44.33;;;23.83;;
15327;SDS011;7764;51.430;6.840;2022-12-18T08:33:55;11.03;;;6.03;;
15327;SDS011;7764;51.430;6.840;2022-12-18T08:36:22;10.40;;;5.97;;
15327;SDS011;7764;51.430;6.840;2022-12-18T08:38:50;9.53;;;4.90;;
15327;SDS011;7764;51.430;6.840;2022-12-18T08:41:17;9.63;;;4.77;;
15327;SDS011;7764;51.430;6.840;2022-12-18T08:43:44;13.33;;;5.10;;
15327;SDS011;7764;51.430;6.840;2022-12-18T08:46:42;9.03;;;4.50;;
15327;SDS011;7764;51.430;6.840;2022-12-18T08:49:10;9.23;;;4.93;;
15327;SDS011;7764;51.430;6.840;2022-12-18T08:51:38;10.27;;;5.03;;
15327;SDS011;7764;51.430;6.840;2022-12-18T08:54:06;8.50;;;4.33;;
15327;SDS011;7764;51.430;6.840;2022-12-18T08:56:36;8.30;;;4.70;;
15327;SDS011;7764;51.430;6.840;2022-12-18T08:59:03;13.80;;;7.40;;
15327;SDS011;7764;51.430;6.840;2022-12-18T09:01:30;9.97;;;5.03;;
15327;SDS011;7764;51.430;6.840;2022-12-18T09:03:58;16.23;;;5.97;;
15327;SDS011;7764;51.430;6.840;2022-12-18T09:06:25;10.13;;;5.60;;
15327;SDS011;7764;51.430;6.840;2022-12-18T09:08:52;9.87;;;5.30;;
15327;SDS011;7764;51.430;6.840;2022-12-18T09:11:20;10.03;;;4.83;;
15327;SDS011;7764;51.430;6.840;2022-12-18T09:13:48;9.27;;;5.00;;
15327;SDS011;7764;51.430;6.840;2022-12-18T09:16:16;8.43;;;4.73;;
15327;SDS011;7764;51.430;6.840;2022-12-18T09:18:44;7.83;;;4.77;;
15327;SDS011;7764;51.430;6.840;2022-12-18T09:21:13;8.67;;;5.23;;
15327;SDS011;7764;51.430;6.840;2022-12-18T09:23:42;10.47;;;5.57;;
15327;SDS011;7764;51.430;6.840;2022-12-18T09:26:09;7.73;;;4.23;;
15327;SDS011;7764;51.430;6.840;2022-12-18T09:28:36;9.93;;;5.40;;
15327;SDS011;7764;51.430;6.840;2022-12-18T09:31:04;10.50;;;5.30;;
15327;SDS011;7764;51.430;6.840;2022-12-18T09:33:32;10.50;;;5.40;;
15327;SDS011;7764;51.430;6.840;2022-12-18T09:36:00;9.00;;;4.93;;
15327;SDS011;7764;51.430;6.840;2022-12-18T09:38:29;9.73;;;5.47;;
15327;SDS011;7764;51.430;6.840;2022-12-18T09:40:58;9.67;;;5.37;;
15327;SDS011;7764;51.430;6.840;2022-12-18T09:43:28;9.83;;;5.00;;
15327;SDS011;7764;51.430;6.840;2022-12-18T09:46:01;10.30;;;5.40;;
15327;SDS011;7764;51.430;6.840;2022-12-18T09:48:35;9.23;;;5.57;;
15327;SDS011;7764;51.430;6.840;2022-12-18T09:51:05;9.37;;;5.03;;
15327;SDS011;7764;51.430;6.840;2022-12-18T09:53:42;11.10;;;5.43;;
15327;SDS011;7764;51.430;6.840;2022-12-18T09:56:15;9.13;;;5.10;;
15327;SDS011;7764;51.430;6.840;2022-12-18T09:58:45;9.70;;;5.53;;
15327;SDS011;7764;51.430;6.840;2022-12-18T10:01:18;10.17;;;5.27;;
15327;SDS011;7764;51.430;6.840;2022-12-18T10:03:49;11.33;;;5.23;;
15327;SDS011;7764;51.430;6.840;2022-12-18T10:06:18;7.20;;;4.43;;
15327;SDS011;7764;51.430;6.840;2022-12-18T10:08:53;7.97;;;4.73;;
15327;SDS011;7764;51.430;6.840;2022-12-18T10:11:28;9.77;;;5.53;;
15327;SDS011;7764;51.430;6.840;2022-12-18T10:14:05;13.37;;;6.10;;
15327;SDS011;7764;51.430;6.840;2022-12-18T10:16:39;9.87;;;5.70;;
15327;SDS011;7764;51.430;6.840;2022-12-18T10:19:33;11.00;;;6.10;;
15327;SDS011;7764;51.430;6.840;2022-12-18T10:22:10;10.90;;;5.90;;
15327;SDS011;7764;51.430;6.840;2022-12-18T10:24:47;12.57;;;6.07;;
15327;SDS011;7764;51.430;6.840;2022-12-18T10:27:23;11.77;;;6.70;;
15327;SDS011;7764;51.430;6.840;2022-12-18T10:29:51;10.40;;;5.70;;
15327;SDS011;7764;51.430;6.840;2022-12-18T10:32:20;11.57;;;6.33;;
15327;SDS011;7764;51.430;6.840;2022-12-18T10:34:51;11.23;;;6.03;;
15327;SDS011;7764;51.430;6.840;2022-12-18T10:37:20;12.53;;;6.20;;
15327;SDS011;7764;51.430;6.840;2022-12-18T10:40:04;11.43;;;6.20;;
15327;SDS011;7764;51.430;6.840;2022-12-18T10:42:37;10.57;;;6.10;;
15327;SDS011;7764;51.430;6.840;2022-12-18T10:45:08;11.87;;;6.90;;
15327;SDS011;7764;51.430;6.840;2022-12-18T10:47:40;12.93;;;5.90;;
15327;SDS011;7764;51.430;6.840;2022-12-18T10:50:16;12.87;;;6.60;;
15327;SDS011;7764;51.430;6.840;2022-12-18T10:52:52;13.33;;;6.03;;
15327;SDS011;7764;51.430;6.840;2022-12-18T10:55:21;12.77;;;6.70;;
15327;SDS011;7764;51.430;6.840;2022-12-18T10:57:50;12.03;;;7.23;;
15327;SDS011;7764;51.430;6.840;2022-12-18T11:00:22;13.03;;;7.27;;
15327;SDS011;7764;51.430;6.840;2022-12-18T11:02:50;12.03;;;7.43;;
15327;SDS011;7764;51.430;6.840;2022-12-18T11:05:25;12.37;;;6.97;;
15327;SDS011;7764;51.430;6.840;2022-12-18T11:07:54;12.93;;;7.17;;
15327;SDS011;7764;51.430;6.840;2022-12-18T11:10:25;12.30;;;7.40;;
15327;SDS011;7764;51.430;6.840;2022-12-18T11:12:57;12.17;;;7.20;;
15327;SDS011;7764;51.430;6.840;2022-12-18T11:15:37;17.37;;;7.07;;
15327;SDS011;7764;51.430;6.840;2022-12-18T11:18:13;13.57;;;7.40;;
15327;SDS011;7764;51.430;6.840;2022-12-18T11:20:42;14.03;;;7.57;;
15327;SDS011;7764;51.430;6.840;2022-12-18T11:23:17;14.20;;;7.50;;
15327;SDS011;7764;51.430;6.840;2022-12-18T11:25:53;10.73;;;6.17;;
15327;SDS011;7764;51.430;6.840;2022-12-18T11:28:29;14.10;;;7.07;;
15327;SDS011;7764;51.430;6.840;2022-12-18T11:31:12;13.70;;;7.77;;
15327;SDS011;7764;51.430;6.840;2022-12-18T11:34:02;13.23;;;7.20;;
15327;SDS011;7764;51.430;6.840;2022-12-18T11:36:33;12.27;;;6.90;;
15327;SDS011;7764;51.430;6.840;2022-12-18T11:39:04;14.43;;;8.07;;
15327;SDS011;7764;51.430;6.840;2022-12-18T11:41:39;14.67;;;8.67;;
15327;SDS011;7764;51.430;6.840;2022-12-18T11:44:29;11.87;;;7.43;;
15327;SDS011;7764;51.430;6.840;2022-12-18T11:47:01;13.50;;;7.50;;
15327;SDS011;7764;51.430;6.840;2022-12-18T11:49:35;14.87;;;7.83;;
15327;SDS011;7764;51.430;6.840;2022-12-18T11:52:04;14.67;;;7.00;;
15327;SDS011;7764;51.430;6.840;2022-12-18T11:54:41;14.40;;;7.43;;
15327;SDS011;7764;51.430;6.840;2022-12-18T11:57:10;13.10;;;7.37;;
15327;SDS011;7764;51.430;6.840;2022-12-18T11:59:47;14.53;;;8.33;;
15327;SDS011;7764;51.430;6.840;2022-12-18T12:02:27;18.10;;;8.30;;
15327;SDS011;7764;51.430;6.840;2022-12-18T12:05:15;13.30;;;7.87;;
15327;SDS011;7764;51.430;6.840;2022-12-18T12:07:52;16.27;;;7.73;;
15327;SDS011;7764;51.430;6.840;2022-12-18T12:10:31;14.47;;;8.27;;
15327;SDS011;7764;51.430;6.840;2022-12-18T12:13:19;14.20;;;7.83;;
15327;SDS011;7764;51.430;6.840;2022-12-18T12:15:58;12.67;;;8.33;;
15327;SDS011;7764;51.430;6.840;2022-12-18T12:18:35;15.23;;;7.97;;
15327;SDS011;7764;51.430;6.840;2022-12-18T12:21:11;16.03;;;7.80;;
15327;SDS011;7764;51.430;6.840;2022-12-18T12:23:44;18.13;;;9.13;;
15327;SDS011;7764;51.430;6.840;2022-12-18T12:26:19;15.73;;;9.37;;
15327;SDS011;7764;51.430;6.840;2022-12-18T12:28:59;14.97;;;8.50;;
15327;SDS011;7764;51.430;6.840;2022-12-18T12:34:23;16.70;;;10.30;;
15327;SDS011;7764;51.430;6.840;2022-12-18T12:37:04;16.53;;;8.93;;
15327;SDS011;7764;51.430;6.840;2022-12-18T12:39:38;14.43;;;8.03;;
15327;SDS011;7764;51.430;6.840;2022-12-18T12:42:10;15.63;;;8.43;;
15327;SDS011;7764;51.430;6.840;2022-12-18T12:44:59;15.63;;;8.60;;
15327;SDS011;7764;51.430;6.840;2022-12-18T12:47:32;15.60;;;7.60;;
15327;SDS011;7764;51.430;6.840;2022-12-18T12:50:03;15.37;;;8.73;;
15327;SDS011;7764;51.430;6.840;2022-12-18T12:52:39;17.27;;;8.63;;
15327;SDS011;7764;51.430;6.840;2022-12-18T12:55:12;13.77;;;8.57;;
15327;SDS011;7764;51.430;6.840;2022-12-18T12:57:43;14.97;;;8.33;;
15327;SDS011;7764;51.430;6.840;2022-12-18T13:00:16;14.40;;;8.90;;
15327;SDS011;7764;51.430;6.840;2022-12-18T13:02:47;15.47;;;8.90;;
15327;SDS011;7764;51.430;6.840;2022-12-18T13:05:19;15.47;;;9.17;;
15327;SDS011;7764;51.430;6.840;2022-12-18T13:07:53;14.17;;;8.07;;
15327;SDS011;7764;51.430;6.840;2022-12-18T13:10:24;16.87;;;10.07;;
15327;SDS011;7764;51.430;6.840;2022-12-18T13:12:57;14.43;;;7.80;;
15327;SDS011;7764;51.430;6.840;2022-12-18T13:15:30;17.43;;;9.37;;
15327;SDS011;7764;51.430;6.840;2022-12-18T13:18:13;14.23;;;8.80;;
15327;SDS011;7764;51.430;6.840;2022-12-18T13:20:43;17.33;;;10.00;;
15327;SDS011;7764;51.430;6.840;2022-12-18T13:23:26;18.97;;;10.60;;
15327;SDS011;7764;51.430;6.840;2022-12-18T13:25:55;18.37;;;10.13;;
15327;SDS011;7764;51.430;6.840;2022-12-18T13:34:20;17.53;;;10.40;;
15327;SDS011;7764;51.430;6.840;2022-12-18T13:36:48;17.73;;;10.10;;
15327;SDS011;7764;51.430;6.840;2022-12-18T13:39:23;19.37;;;10.63;;
15327;SDS011;7764;51.430;6.840;2022-12-18T13:48:20;17.47;;;8.47;;
15327;SDS011;7764;51.430;6.840;2022-12-18T13:51:00;19.00;;;10.33;;
15327;SDS011;7764;51.430;6.840;2022-12-18T13:53:30;19.13;;;11.20;;
15327;SDS011;7764;51.430;6.840;2022-12-18T13:56:02;19.47;;;10.90;;
15327;SDS011;7764;51.430;6.840;2022-12-18T13:58:30;19.93;;;11.77;;
15327;SDS011;7764;51.430;6.840;2022-12-18T14:00:57;19.77;;;11.60;;
15327;SDS011;7764;51.430;6.840;2022-12-18T14:03:27;20.73;;;11.03;;
15327;SDS011;7764;51.430;6.840;2022-12-18T14:05:56;19.67;;;10.60;;
15327;SDS011;7764;51.430;6.840;2022-12-18T14:08:33;20.10;;;11.50;;
15327;SDS011;7764;51.430;6.840;2022-12-18T14:11:04;22.87;;;11.87;;
15327;SDS011;7764;51.430;6.840;2022-12-18T14:13:35;20.33;;;11.47;;
15327;SDS011;7764;51.430;6.840;2022-12-18T14:16:06;23.80;;;12.27;;
15327;SDS011;7764;51.430;6.840;2022-12-18T14:18:36;19.67;;;10.37;;
15327;SDS011;7764;51.430;6.840;2022-12-18T14:21:16;22.50;;;12.70;;
15327;SDS011;7764;51.430;6.840;2022-12-18T14:23:46;19.77;;;11.57;;
15327;SDS011;7764;51.430;6.840;2022-12-18T14:26:21;29.37;;;11.07;;
15327;SDS011;7764;51.430;6.840;2022-12-18T14:28:52;20.70;;;12.10;;
15327;SDS011;7764;51.430;6.840;2022-12-18T14:31:20;18.93;;;10.50;;
15327;SDS011;7764;51.430;6.840;2022-12-18T14:33:49;23.17;;;12.03;;
15327;SDS011;7764;51.430;6.840;2022-12-18T14:36:19;20.97;;;11.80;;
15327;SDS011;7764;51.430;6.840;2022-12-18T14:38:48;22.17;;;12.20;;
15327;SDS011;7764;51.430;6.840;2022-12-18T14:41:17;20.40;;;11.50;;
15327;SDS011;7764;51.430;6.840;2022-12-18T14:43:45;21.33;;;11.63;;
15327;SDS011;7764;51.430;6.840;2022-12-18T14:46:27;29.27;;;11.93;;
15327;SDS011;7764;51.430;6.840;2022-12-18T14:48:57;25.83;;;11.80;;
15327;SDS011;7764;51.430;6.840;2022-12-18T14:51:27;23.10;;;13.07;;
15327;SDS011;7764;51.430;6.840;2022-12-18T14:53:56;21.30;;;11.83;;
15327;SDS011;7764;51.430;6.840;2022-12-18T14:56:26;23.10;;;12.27;;
15327;SDS011;7764;51.430;6.840;2022-12-18T14:58:55;20.27;;;11.40;;
15327;SDS011;7764;51.430;6.840;2022-12-18T15:01:25;21.90;;;12.37;;
15327;SDS011;7764;51.430;6.840;2022-12-18T15:03:54;22.23;;;12.80;;
15327;SDS011;7764;51.430;6.840;2022-12-18T15:06:28;22.37;;;11.83;;
15327;SDS011;7764;51.430;6.840;2022-12-18T15:09:00;25.23;;;13.10;;
15327;SDS011;7764;51.430;6.840;2022-12-18T15:11:33;26.20;;;13.00;;
15327;SDS011;7764;51.430;6.840;2022-12-18T15:16:50;24.23;;;13.00;;
15327;SDS011;7764;51.430;6.840;2022-12-18T15:19:19;20.30;;;11.00;;
15327;SDS011;7764;51.430;6.840;2022-12-18T15:21:49;21.33;;;12.33;;
15327;SDS011;7764;51.430;6.840;2022-12-18T15:24:16;24.33;;;12.90;;